createdAt,value
2018-01-03T00:00:48.726Z,3.00
2018-01-03T00:03:27.298Z,2.92
2018-01-03T00:06:05.582Z,2.65
2018-01-03T00:08:45.405Z,1.83
2018-01-03T00:11:24.751Z,2.78
2018-01-03T00:14:02.586Z,2.65
2018-01-03T00:16:42.657Z,2.40
2018-01-03T00:19:14.014Z,2.30
2018-01-03T00:21:48.864Z,2.40
2018-01-03T00:24:19.818Z,2.40
2018-01-03T00:26:58.825Z,1.95
2018-01-03T00:29:32.033Z,2.30
2018-01-03T00:32:08.777Z,2.05
2018-01-03T00:34:47.014Z,2.20
2018-01-03T00:37:26.396Z,1.80
2018-01-03T00:40:04.992Z,1.90
2018-01-03T00:42:33.370Z,2.10
2018-01-03T00:45:00.317Z,2.10
2018-01-03T00:47:40.192Z,2.50
2018-01-03T00:50:08.775Z,2.05
2018-01-03T00:52:35.643Z,1.75
2018-01-03T00:55:16.569Z,2.30
2018-01-03T00:57:56.419Z,1.80
2018-01-03T01:00:24.314Z,2.03
2018-01-03T01:03:04.186Z,2.08
2018-01-03T01:05:33.619Z,2.05
2018-01-03T01:08:01.600Z,1.33
2018-01-03T01:10:29.198Z,1.92
2018-01-03T01:13:01.935Z,1.60
2018-01-03T01:15:42.342Z,1.80
2018-01-03T01:18:19.091Z,2.10
2018-01-03T01:20:46.722Z,1.70
2018-01-03T01:23:13.662Z,2.25
2018-01-03T01:25:40.545Z,1.70
2018-01-03T01:28:14.671Z,1.33
2018-01-03T01:30:43.308Z,1.60
2018-01-03T01:33:10.292Z,1.50
2018-01-03T01:35:42.425Z,1.77
2018-01-03T01:38:17.077Z,2.30
2018-01-03T01:40:44.026Z,2.00
2018-01-03T01:43:12.708Z,1.70
2018-01-03T01:45:56.849Z,2.40
2018-01-03T01:48:25.513Z,2.00
2018-01-03T01:51:04.881Z,1.87
2018-01-03T01:53:47.063Z,2.42
2018-01-03T01:56:27.586Z,2.80
2018-01-03T01:59:11.913Z,1.90
2018-01-03T02:04:36.179Z,2.75
2018-01-03T02:07:19.157Z,2.00
2018-01-03T02:10:00.919Z,2.03
2018-01-03T02:15:31.771Z,1.90
2018-01-03T02:18:14.263Z,1.50
2018-01-03T02:23:40.031Z,2.90
2018-01-03T02:26:21.967Z,2.70
2018-01-03T02:29:07.581Z,2.00
2018-01-03T02:34:34.760Z,2.00
2018-01-03T02:37:17.461Z,2.47
2018-01-03T02:39:59.876Z,2.30
2018-01-03T02:48:11.478Z,1.77
2018-01-03T02:53:38.379Z,1.83
2018-01-03T02:56:20.136Z,1.80
2018-01-03T03:01:46.357Z,2.05
2018-01-03T03:04:32.333Z,1.55
2018-01-03T03:10:02.035Z,1.80
2018-01-03T03:12:43.967Z,2.10
2018-01-03T03:15:24.912Z,2.10
2018-01-03T03:18:06.281Z,2.30
2018-01-03T03:20:50.435Z,1.85
2018-01-03T03:23:31.615Z,1.70
2018-01-03T03:26:13.703Z,1.80
2018-01-03T03:28:57.606Z,1.80
2018-01-03T03:31:39.016Z,1.90
2018-01-03T03:37:08.825Z,1.87
2018-01-03T03:39:50.240Z,1.70
2018-01-03T03:42:31.404Z,2.03
2018-01-03T03:45:24.535Z,1.73
2018-01-03T03:48:07.078Z,1.73
2018-01-03T03:50:47.590Z,1.80
2018-01-03T03:53:27.823Z,1.40
2018-01-03T03:56:08.502Z,1.20
2018-01-03T03:58:53.315Z,1.83
2018-01-03T04:01:33.905Z,1.20
2018-01-03T04:04:17.596Z,1.90
2018-01-03T04:07:01.038Z,1.50
2018-01-03T04:09:40.115Z,1.10
2018-01-03T04:15:06.633Z,1.43
2018-01-03T04:20:29.263Z,1.80
2018-01-03T04:23:11.364Z,0.93
2018-01-03T04:25:52.047Z,1.30
2018-01-03T04:28:34.799Z,1.10
2018-01-03T04:31:18.135Z,0.93
2018-01-03T04:33:59.824Z,0.90
2018-01-03T04:36:39.967Z,1.40
2018-01-03T04:39:24.691Z,1.07
2018-01-03T04:42:09.178Z,1.10
2018-01-03T04:50:18.649Z,1.17
2018-01-03T04:53:00.762Z,0.97
2018-01-03T04:58:28.432Z,1.20
2018-01-03T05:01:10.098Z,1.40
2018-01-03T05:03:53.139Z,1.00
2018-01-03T05:06:32.912Z,1.10
2018-01-03T05:09:16.404Z,1.30
2018-01-03T05:11:58.374Z,1.10
2018-01-03T05:14:40.258Z,1.50
2018-01-03T05:17:22.615Z,0.97
2018-01-03T05:20:02.414Z,1.30
2018-01-03T05:22:44.550Z,0.90
2018-01-03T05:28:13.635Z,1.07
2018-01-03T05:30:56.853Z,1.03
2018-01-03T05:33:39.094Z,1.00
2018-01-03T05:36:21.272Z,1.10
2018-01-03T05:39:04.034Z,0.80
2018-01-03T05:44:33.107Z,1.10
2018-01-03T05:49:58.455Z,0.90
2018-01-03T05:57:59.322Z,0.90
2018-01-03T06:00:43.114Z,1.10
2018-01-03T06:06:12.945Z,1.40
2018-01-03T06:08:53.730Z,1.13
2018-01-03T06:11:38.061Z,0.97
2018-01-03T06:14:18.848Z,0.90
2018-01-03T06:19:47.563Z,1.00
2018-01-03T06:22:32.667Z,0.90
2018-01-03T06:28:05.783Z,0.40
2018-01-03T06:33:36.331Z,0.67
2018-01-03T06:36:18.892Z,0.40
2018-01-03T06:39:00.949Z,0.50
2018-01-03T06:44:29.357Z,0.37
2018-01-03T06:49:56.602Z,0.40
2018-01-03T06:52:40.631Z,0.30
2018-01-03T06:55:21.396Z,0.40
2018-01-03T06:58:07.537Z,0.50
2018-01-03T07:00:48.852Z,0.30
2018-01-03T07:03:31.740Z,0.60
2018-01-03T07:06:14.860Z,0.40
2018-01-03T07:09:01.028Z,0.70
2018-01-03T07:14:31.155Z,0.70
2018-01-03T07:19:58.773Z,0.60
2018-01-03T07:22:42.614Z,0.70
2018-01-03T07:28:10.914Z,0.60
2018-01-03T07:33:39.811Z,0.83
2018-01-03T07:36:23.897Z,0.90
2018-01-03T07:39:10.126Z,0.70
2018-01-03T07:41:51.403Z,0.50
2018-01-03T07:44:34.248Z,1.10
2018-01-03T07:47:20.593Z,1.30
2018-01-03T07:52:47.763Z,1.30
2018-01-03T07:58:17.084Z,0.70
2018-01-03T08:01:00.151Z,0.60
2018-01-03T08:03:29.045Z,0.70
2018-01-03T08:05:56.974Z,0.90
2018-01-03T08:08:25.944Z,0.93
2018-01-03T08:10:54.939Z,1.20
2018-01-03T08:13:23.180Z,0.50
2018-01-03T08:15:52.086Z,0.97
2018-01-03T08:18:20.079Z,0.70
2018-01-03T08:20:47.029Z,0.77
2018-01-03T08:23:14.062Z,0.67
2018-01-03T08:25:40.915Z,0.60
2018-01-03T08:28:07.854Z,0.60
2018-01-03T08:30:34.812Z,0.83
2018-01-03T08:33:01.686Z,0.90
2018-01-03T08:35:31.421Z,0.60
2018-01-03T08:37:59.099Z,0.80
2018-01-03T08:40:26.052Z,0.60
2018-01-03T08:42:52.999Z,0.40
2018-01-03T08:45:19.935Z,0.50
2018-01-03T08:47:46.866Z,0.73
2018-01-03T08:50:14.511Z,0.60
2018-01-03T08:52:41.443Z,0.50
2018-01-03T08:55:08.496Z,0.60
2018-01-03T08:57:35.469Z,0.57
2018-01-03T09:00:02.401Z,0.60
2018-01-03T09:02:29.270Z,0.67
2018-01-03T09:04:56.207Z,1.40
2018-01-03T09:07:23.187Z,1.07
2018-01-03T09:09:50.070Z,0.80
2018-01-03T09:12:17.096Z,1.30
2018-01-03T09:14:43.950Z,0.80
2018-01-03T09:17:10.931Z,1.00
2018-01-03T09:19:38.536Z,1.23
2018-01-03T09:22:05.399Z,0.83
2018-01-03T09:24:32.361Z,1.37
2018-01-03T09:26:59.413Z,0.87
2018-01-03T09:29:26.393Z,1.47
2018-01-03T09:31:53.265Z,0.90
2018-01-03T09:34:20.184Z,1.47
2018-01-03T09:36:47.811Z,1.33
2018-01-03T09:39:14.758Z,1.30
2018-01-03T09:41:41.722Z,1.27
2018-01-03T09:44:08.679Z,1.40
2018-01-03T09:46:35.552Z,1.60
2018-01-03T09:49:02.419Z,1.47
2018-01-03T09:51:29.339Z,1.30
2018-01-03T09:53:56.291Z,1.53
2018-01-03T09:56:23.192Z,0.93
2018-01-03T09:59:04.124Z,1.23
2018-01-03T10:01:44.347Z,1.10
2018-01-03T10:04:22.247Z,1.33
2018-01-03T10:07:03.553Z,1.50
2018-01-03T10:12:26.141Z,3.13
2018-01-03T10:15:07.122Z,2.93
2018-01-03T10:20:36.731Z,1.70
2018-01-03T10:23:18.961Z,1.40
2018-01-03T10:26:02.137Z,1.20
2018-01-03T10:28:45.534Z,0.87
2018-01-03T10:31:26.547Z,1.27
2018-01-03T10:34:08.164Z,1.20
2018-01-03T10:36:48.254Z,1.17
2018-01-03T10:39:29.641Z,1.00
2018-01-03T10:42:10.069Z,0.90
2018-01-03T10:44:46.827Z,0.90
2018-01-03T10:47:29.286Z,0.90
2018-01-03T10:50:12.268Z,0.90
2018-01-03T10:52:51.083Z,1.50
2018-01-03T10:55:31.881Z,0.70
2018-01-03T10:58:13.461Z,0.80
2018-01-03T11:00:52.627Z,0.80
2018-01-03T11:03:49.490Z,0.50
2018-01-03T11:06:32.607Z,0.60
2018-01-03T11:09:12.201Z,0.50
2018-01-03T11:11:50.533Z,0.87
2018-01-03T11:19:54.293Z,0.93
2018-01-03T11:22:36.417Z,1.90
2018-01-03T11:25:20.557Z,2.43
2018-01-03T11:28:01.538Z,1.80
2018-01-03T11:30:45.538Z,1.80
2018-01-03T11:41:38.286Z,1.70
2018-01-03T11:47:02.141Z,1.70
2018-01-03T11:49:43.952Z,1.20
2018-01-03T11:52:25.830Z,1.43
2018-01-03T11:55:07.463Z,1.43
2018-01-03T11:57:50.401Z,1.70
2018-01-03T12:00:30.882Z,2.57
2018-01-03T12:05:58.470Z,1.30
2018-01-03T12:08:39.914Z,1.53
2018-01-03T12:11:22.618Z,1.20
2018-01-03T12:16:48.697Z,1.97
2018-01-03T12:19:30.199Z,2.07
2018-01-03T12:22:15.000Z,1.70
2018-01-03T12:24:56.357Z,2.10
2018-01-03T12:27:38.950Z,1.77
2018-01-03T12:33:07.610Z,1.80
2018-01-03T12:35:46.359Z,2.17
2018-01-03T12:38:27.238Z,2.50
2018-01-03T12:41:02.710Z,3.27
2018-01-03T12:43:46.499Z,2.47
2018-01-03T12:49:09.192Z,2.87
2018-01-03T12:54:37.164Z,2.60
2018-01-03T13:00:03.746Z,3.20
2018-01-03T13:02:43.494Z,2.47
2018-01-03T13:05:25.102Z,2.03
2018-01-03T13:08:05.755Z,2.83
2018-01-03T13:10:47.822Z,2.17
2018-01-03T13:13:27.993Z,4.00
2018-01-03T13:18:48.624Z,2.37
2018-01-03T13:21:31.432Z,1.83
2018-01-03T13:24:11.632Z,1.60
2018-01-03T13:26:53.583Z,2.17
2018-01-03T13:29:34.703Z,2.50
2018-01-03T13:34:59.407Z,2.40
2018-01-03T13:37:42.057Z,2.40
2018-01-03T13:40:20.444Z,3.20
2018-01-03T13:43:02.259Z,4.47
2018-01-03T13:45:42.105Z,3.77
2018-01-03T13:48:22.839Z,3.30
2018-01-03T13:51:03.868Z,2.73
2018-01-03T13:53:47.553Z,2.87
2018-01-03T13:59:16.103Z,4.50
2018-01-03T14:01:44.525Z,3.40
2018-01-03T14:04:12.561Z,5.80
2018-01-03T14:06:39.426Z,3.20
2018-01-03T14:09:06.451Z,2.70
2018-01-03T14:11:33.409Z,1.97
2018-01-03T14:14:01.450Z,2.70
2018-01-03T14:16:41.117Z,2.17
2018-01-03T14:19:22.303Z,1.87
2018-01-03T14:22:10.163Z,3.03
2018-01-03T14:24:51.982Z,2.87
2018-01-03T14:27:30.589Z,2.50
2018-01-03T14:30:16.599Z,3.20
2018-01-03T14:32:59.573Z,2.80
2018-01-03T14:38:23.083Z,2.27
2018-01-03T14:41:07.920Z,4.40
2018-01-03T14:43:47.991Z,3.33
2018-01-03T14:46:29.367Z,2.80
2018-01-03T14:52:00.504Z,3.33
2018-01-03T14:54:43.216Z,2.77
2018-01-03T14:57:25.541Z,3.20
2018-01-03T15:02:53.657Z,2.50
2018-01-03T15:11:02.225Z,3.03
2018-01-03T15:13:41.696Z,1.70
2018-01-03T15:16:23.204Z,2.50
2018-01-03T15:24:39.726Z,3.60
2018-01-03T15:27:21.592Z,2.10
2018-01-03T15:30:03.577Z,2.00
2018-01-03T15:32:45.510Z,2.70
2018-01-03T15:35:26.697Z,1.70
2018-01-03T15:38:06.855Z,1.97
2018-01-03T15:40:53.387Z,2.07
2018-01-03T15:43:35.143Z,3.00
2018-01-03T15:49:02.915Z,2.83
2018-01-03T15:57:14.225Z,1.90
2018-01-03T15:59:57.626Z,2.87
2018-01-03T16:08:02.636Z,2.27
2018-01-03T16:13:30.108Z,2.90
2018-01-03T16:18:55.436Z,3.27
2018-01-03T16:21:37.108Z,2.10
2018-01-03T16:24:17.755Z,3.50
2018-01-03T16:27:02.029Z,4.33
2018-01-03T16:29:44.555Z,2.23
2018-01-03T16:32:26.418Z,3.80
2018-01-03T16:35:05.851Z,2.27
2018-01-03T16:37:44.660Z,2.17
2018-01-03T16:40:24.816Z,2.20
2018-01-03T16:43:07.791Z,2.60
2018-01-03T16:48:31.423Z,2.87
2018-01-03T16:51:12.009Z,2.40
2018-01-03T16:53:51.884Z,2.47
2018-01-03T16:56:33.141Z,2.30
2018-01-03T16:59:13.599Z,3.23
2018-01-03T17:01:54.214Z,2.50
2018-01-03T17:07:21.365Z,2.60
2018-01-03T17:12:47.039Z,2.37
2018-01-03T17:18:13.464Z,1.50
2018-01-03T17:20:54.919Z,1.77
2018-01-03T17:23:45.610Z,1.27
2018-01-03T17:31:53.614Z,1.73
2018-01-03T17:34:34.861Z,1.50
2018-01-03T17:37:16.742Z,1.67
2018-01-03T17:40:00.853Z,2.00
2018-01-03T17:45:27.151Z,2.40
2018-01-03T17:50:52.715Z,3.40
2018-01-03T17:56:18.298Z,2.50
2018-01-03T17:59:01.027Z,2.80
2018-01-03T18:01:42.000Z,2.67
2018-01-03T18:04:22.746Z,2.67
2018-01-03T18:07:05.334Z,4.10
2018-01-03T18:12:32.644Z,3.15
2018-01-03T18:15:13.345Z,2.65
2018-01-03T18:17:56.425Z,3.50
2018-01-03T18:20:39.625Z,3.35
2018-01-03T18:23:19.332Z,3.37
2018-01-03T18:26:00.799Z,3.47
2018-01-03T18:28:41.358Z,3.13
2018-01-03T18:34:12.848Z,3.23
2018-01-03T18:36:53.247Z,3.35
2018-01-03T18:39:35.857Z,4.60
2018-01-03T18:42:16.754Z,4.32
2018-01-03T18:47:43.863Z,4.77
2018-01-03T18:50:26.345Z,4.30
2018-01-03T18:53:09.271Z,4.82
2018-01-03T18:55:50.706Z,4.53
2018-01-03T18:58:31.836Z,3.30
2018-01-03T19:01:13.078Z,3.55
2018-01-03T19:03:57.306Z,2.60
2018-01-03T19:06:39.790Z,2.67
2018-01-03T19:09:20.236Z,4.00
2018-01-03T19:12:00.412Z,2.90
2018-01-03T19:14:40.881Z,2.63
2018-01-03T19:17:24.375Z,2.90
2018-01-03T19:20:09.552Z,2.30
2018-01-03T19:25:38.713Z,3.03
2018-01-03T19:28:21.319Z,2.43
2018-01-03T19:31:01.911Z,2.80
2018-01-03T19:33:42.464Z,2.83
2018-01-03T19:36:23.448Z,3.80
2018-01-03T19:39:01.174Z,4.30
2018-01-03T19:41:43.792Z,2.92
2018-01-03T19:44:24.902Z,3.33
2018-01-03T19:47:08.267Z,3.10
2018-01-03T19:49:51.440Z,3.53
2018-01-03T19:55:19.324Z,3.40
2018-01-03T19:58:00.043Z,2.92
2018-01-03T20:00:42.524Z,3.53
2018-01-03T20:03:25.050Z,3.00
2018-01-03T20:06:06.196Z,3.07
2018-01-03T20:08:33.819Z,4.40
2018-01-03T20:11:00.691Z,3.47
2018-01-03T20:13:40.916Z,3.40
2018-01-03T20:19:06.776Z,4.60
2018-01-03T20:21:34.421Z,3.40
2018-01-03T20:24:14.953Z,3.30
2018-01-03T20:26:57.045Z,4.33
2018-01-03T20:29:25.603Z,3.60
2018-01-03T20:31:52.566Z,3.20
2018-01-03T20:34:19.515Z,5.32
2018-01-03T20:36:46.516Z,3.73
2018-01-03T20:39:14.386Z,3.83
2018-01-03T20:41:42.184Z,4.37
2018-01-03T20:44:09.058Z,4.50
2018-01-03T20:46:36.085Z,5.07
2018-01-03T20:49:03.071Z,4.50
2018-01-03T20:51:30.039Z,4.10
2018-01-03T20:53:57.838Z,4.77
2018-01-03T20:56:24.860Z,4.30
2018-01-03T20:58:52.676Z,6.10
2018-01-03T21:01:19.686Z,5.35
2018-01-03T21:03:46.792Z,6.23
2018-01-03T21:06:13.691Z,4.40
2018-01-03T21:08:40.680Z,5.90
2018-01-03T21:11:07.549Z,4.80
2018-01-03T21:13:34.664Z,5.20
2018-01-03T21:16:04.717Z,6.13
2018-01-03T21:18:45.082Z,5.20
2018-01-03T21:21:20.603Z,6.93
2018-01-03T21:24:03.751Z,4.23
2018-01-03T21:26:31.683Z,6.33
2018-01-03T21:28:59.832Z,4.10
2018-01-03T21:31:28.207Z,5.90
2018-01-03T21:33:55.222Z,5.30
2018-01-03T21:36:22.232Z,5.00
2018-01-03T21:38:50.429Z,5.00
2018-01-03T21:41:18.310Z,4.30
2018-01-03T21:43:47.755Z,3.37
2018-01-03T21:46:15.563Z,5.17
2018-01-03T21:48:43.222Z,4.23
2018-01-03T21:51:10.106Z,5.80
2018-01-03T21:53:38.590Z,4.67
2018-01-03T21:56:07.109Z,4.13
2018-01-03T21:58:34.342Z,7.33
2018-01-03T22:01:01.891Z,5.63
2018-01-03T22:03:28.807Z,6.30
2018-01-03T22:05:57.119Z,4.20
2018-01-03T22:08:25.357Z,5.20
2018-01-03T22:10:52.653Z,4.20
2018-01-03T22:13:20.535Z,5.43
2018-01-03T22:15:47.481Z,4.77
2018-01-03T22:18:14.476Z,5.20
2018-01-03T22:20:41.525Z,4.13
2018-01-03T22:23:09.222Z,4.60
2018-01-03T22:25:37.015Z,4.20
2018-01-03T22:28:03.983Z,4.57
2018-01-03T22:30:30.844Z,4.40
2018-01-03T22:32:57.842Z,4.37
2018-01-03T22:35:24.767Z,5.93
2018-01-03T22:37:52.502Z,7.60
2018-01-03T22:40:19.363Z,4.97
2018-01-03T22:42:46.327Z,4.70
2018-01-03T22:45:13.987Z,5.20
2018-01-03T22:47:41.701Z,5.30
2018-01-03T22:50:08.578Z,5.20
2018-01-03T22:52:35.470Z,4.13
2018-01-03T22:55:02.444Z,5.03
2018-01-03T22:57:29.318Z,5.40
2018-01-03T23:00:00.163Z,4.47
2018-01-03T23:02:27.244Z,4.43
2018-01-03T23:04:54.122Z,5.83
2018-01-03T23:07:21.082Z,4.70
2018-01-03T23:09:49.066Z,4.65
2018-01-03T23:12:16.067Z,3.90
2018-01-03T23:14:47.935Z,4.50
2018-01-03T23:17:14.887Z,4.55
2018-01-03T23:19:42.763Z,5.60
2018-01-03T23:22:16.226Z,7.40
2018-01-03T23:24:43.105Z,3.85
2018-01-03T23:27:15.119Z,4.77
2018-01-03T23:29:48.372Z,4.37
2018-01-03T23:32:15.316Z,4.95
2018-01-03T23:34:47.095Z,3.60
2018-01-03T23:37:14.019Z,3.53
2018-01-03T23:39:40.951Z,2.85
2018-01-03T23:42:07.920Z,3.15
2018-01-03T23:44:37.631Z,3.57
2018-01-03T23:47:07.779Z,3.28
2018-01-03T23:49:38.714Z,3.35
2018-01-03T23:52:19.085Z,2.80
2018-01-03T23:54:46.270Z,3.85
2018-01-03T23:57:13.215Z,5.37
2018-01-03T23:59:40.120Z,3.60
